Terminal Aerodrome Forecast
Issued by NWS El Paso, TX

Current Version | Previous Version | Text Only | Print | Product List | Glossary On
Versions: 1 2 3 4 5 6 7 8 9 10 11 12
975
FTUS44 KEPZ 072338
TAFELP
TAF
KELP 072338Z 0800/0824 32007KT P6SM OVC250
     FM080600 03011KT P6SM BKN250
     FM081200 09011KT P6SM SCT250
     FM081800 12010KT P6SM FEW250=

USA.gov is the U.S. government's official web portal to all federal, state and local government web resources and services.